createdAt,value
2023-03-22T00:00:29.383Z,43.77
2023-03-22T00:02:59.080Z,48.33
2023-03-22T00:05:27.545Z,47.00
2023-03-22T00:07:58.801Z,43.80
2023-03-22T00:10:27.713Z,43.97
2023-03-22T00:12:55.971Z,46.40
2023-03-22T00:15:24.510Z,49.93
2023-03-22T00:17:52.628Z,47.20
2023-03-22T00:20:23.885Z,51.43
2023-03-22T00:22:52.541Z,48.57
2023-03-22T00:25:20.784Z,52.57
2023-03-22T00:27:49.044Z,56.87
2023-03-22T00:30:17.381Z,48.83
2023-03-22T00:32:45.755Z,51.30
2023-03-22T00:35:14.052Z,46.50
2023-03-22T00:37:43.574Z,54.40
2023-03-22T00:40:14.115Z,47.97
2023-03-22T00:42:43.054Z,48.80
2023-03-22T00:45:13.148Z,52.43
2023-03-22T00:47:41.348Z,46.93
2023-03-22T00:50:10.292Z,50.47
2023-03-22T00:52:38.518Z,53.03
2023-03-22T00:55:08.973Z,45.47
2023-03-22T00:57:37.964Z,41.70
2023-03-22T01:00:11.142Z,45.43
2023-03-22T01:02:39.310Z,48.13
2023-03-22T01:05:08.063Z,44.23
2023-03-22T01:07:38.475Z,41.57
2023-03-22T01:10:09.587Z,50.93
2023-03-22T01:12:37.845Z,48.40
2023-03-22T01:15:07.318Z,42.50
2023-03-22T01:17:35.584Z,42.67
2023-03-22T01:20:04.840Z,46.70
2023-03-22T01:22:32.942Z,44.77
2023-03-22T01:25:01.089Z,39.33
2023-03-22T01:27:30.461Z,40.70
2023-03-22T01:29:58.634Z,37.20
2023-03-22T01:32:27.242Z,43.53
2023-03-22T01:34:55.947Z,42.90
2023-03-22T01:37:25.591Z,46.07
2023-03-22T01:39:53.833Z,40.43
2023-03-22T01:42:22.614Z,38.73
2023-03-22T01:45:34.872Z,38.83
2023-03-22T01:48:09.833Z,40.93
2023-03-22T01:50:42.689Z,42.93
2023-03-22T01:53:14.326Z,41.77
2023-03-22T01:55:43.629Z,42.10
2023-03-22T01:58:11.838Z,51.87
2023-03-22T02:00:41.697Z,42.63
2023-03-22T02:03:10.066Z,43.70
2023-03-22T02:05:38.177Z,45.30
2023-03-22T02:08:09.100Z,44.83
2023-03-22T02:10:37.612Z,47.57
2023-03-22T02:13:24.560Z,43.57
2023-03-22T02:16:09.038Z,47.07
2023-03-22T02:18:50.578Z,40.80
2023-03-22T02:21:39.090Z,45.27
2023-03-22T02:24:55.680Z,40.87
2023-03-22T02:27:59.200Z,45.37
2023-03-22T02:30:54.860Z,46.93
2023-03-22T02:33:53.217Z,40.87
2023-03-22T02:36:35.392Z,41.23
2023-03-22T02:39:17.932Z,41.73
2023-03-22T02:42:01.335Z,44.13
2023-03-22T02:44:38.567Z,43.87
2023-03-22T02:47:16.858Z,42.53
2023-03-22T02:49:52.025Z,43.03
2023-03-22T02:52:26.530Z,45.17
2023-03-22T02:55:03.720Z,50.50
2023-03-22T02:57:38.016Z,62.13
2023-03-22T03:00:10.717Z,69.30
2023-03-22T03:02:41.696Z,64.70
2023-03-22T03:05:13.191Z,61.97
2023-03-22T03:07:44.425Z,57.97
2023-03-22T03:10:16.876Z,57.10
2023-03-22T03:12:45.382Z,56.80
2023-03-22T03:15:17.008Z,60.20
2023-03-22T03:18:00.093Z,53.00
2023-03-22T03:20:39.963Z,46.73
2023-03-22T03:23:24.631Z,41.93
2023-03-22T03:26:02.490Z,42.30
2023-03-22T03:28:39.434Z,37.30
2023-03-22T03:31:17.211Z,41.20
2023-03-22T03:33:51.289Z,46.00
2023-03-22T03:36:21.714Z,43.80
2023-03-22T03:38:53.962Z,49.60
2023-03-22T03:41:27.511Z,47.77
2023-03-22T03:43:58.848Z,45.93
2023-03-22T03:46:28.239Z,41.87
2023-03-22T03:48:59.131Z,41.10
2023-03-22T03:51:28.805Z,44.30
2023-03-22T03:53:56.953Z,45.17
2023-03-22T03:56:26.773Z,44.00
2023-03-22T03:58:55.018Z,46.93
2023-03-22T04:01:24.292Z,44.53
2023-03-22T04:03:55.562Z,39.57
2023-03-22T04:06:23.832Z,41.67
2023-03-22T04:08:54.279Z,45.30
2023-03-22T04:11:22.479Z,40.77
2023-03-22T04:13:52.101Z,51.47
2023-03-22T04:16:20.474Z,44.83
2023-03-22T04:18:48.799Z,46.57
2023-03-22T04:21:16.931Z,43.53
2023-03-22T04:23:46.802Z,49.20
2023-03-22T04:26:15.675Z,42.20
2023-03-22T04:28:43.768Z,46.53
2023-03-22T04:31:13.410Z,40.70
2023-03-22T04:33:47.259Z,40.13
2023-03-22T04:36:18.170Z,41.93
2023-03-22T04:38:47.738Z,43.70
2023-03-22T04:41:16.085Z,45.03
2023-03-22T04:43:47.221Z,50.60
2023-03-22T04:46:16.921Z,50.20
2023-03-22T04:48:45.354Z,52.77
2023-03-22T04:51:13.571Z,44.70
2023-03-22T04:53:41.850Z,49.20
2023-03-22T04:56:12.861Z,48.97
2023-03-22T04:58:42.756Z,48.23
2023-03-22T05:01:12.096Z,43.33
2023-03-22T05:03:43.095Z,44.10
2023-03-22T05:06:11.962Z,40.73
2023-03-22T05:08:40.266Z,47.10
2023-03-22T05:11:11.449Z,42.17
2023-03-22T05:13:40.013Z,37.87
2023-03-22T05:16:10.202Z,36.23
2023-03-22T05:18:45.591Z,44.23
2023-03-22T05:21:17.321Z,41.00
2023-03-22T05:23:49.191Z,43.37
2023-03-22T05:26:20.565Z,42.23
2023-03-22T05:28:48.866Z,43.10
2023-03-22T05:31:17.330Z,45.07
2023-03-22T05:33:46.816Z,41.97
2023-03-22T05:36:17.023Z,41.00
2023-03-22T05:38:46.655Z,47.17
2023-03-22T05:41:15.627Z,41.57
2023-03-22T05:43:45.413Z,52.03
2023-03-22T05:46:14.076Z,45.40
2023-03-22T05:48:42.365Z,48.57
2023-03-22T05:51:13.795Z,46.57
2023-03-22T05:53:43.457Z,50.00
2023-03-22T05:56:14.111Z,50.77
2023-03-22T05:58:42.666Z,49.40
2023-03-22T06:01:12.661Z,48.67
2023-03-22T06:03:41.636Z,46.00
2023-03-22T06:06:12.191Z,55.60
2023-03-22T06:08:42.149Z,48.53
2023-03-22T06:11:11.866Z,50.03
2023-03-22T06:13:40.287Z,49.77
2023-03-22T06:16:08.867Z,50.00
2023-03-22T06:18:37.663Z,50.77
2023-03-22T06:21:06.553Z,50.70
2023-03-22T06:23:34.777Z,51.87
2023-03-22T06:26:03.156Z,53.13
2023-03-22T06:28:33.222Z,50.77
2023-03-22T06:31:08.371Z,52.37
2023-03-22T06:33:38.500Z,59.53
2023-03-22T06:36:07.692Z,60.23
2023-03-22T06:38:35.930Z,53.13
2023-03-22T06:41:04.443Z,56.97
2023-03-22T06:43:34.722Z,63.50
2023-03-22T06:46:02.988Z,57.47
2023-03-22T06:48:31.275Z,56.93
2023-03-22T06:50:59.679Z,54.83
2023-03-22T06:53:28.208Z,55.00
2023-03-22T06:55:56.496Z,52.43
2023-03-22T06:58:26.469Z,51.07
2023-03-22T07:00:57.013Z,51.17
2023-03-22T07:03:25.380Z,53.77
2023-03-22T07:05:53.625Z,54.40
2023-03-22T07:08:21.735Z,57.33
2023-03-22T07:10:51.539Z,54.73
2023-03-22T07:13:20.253Z,59.60
2023-03-22T07:15:48.752Z,56.80
2023-03-22T07:18:18.725Z,51.87
2023-03-22T07:20:47.248Z,55.57
2023-03-22T07:23:15.596Z,57.63
2023-03-22T07:25:43.989Z,52.47
2023-03-22T07:28:12.414Z,57.33
2023-03-22T07:30:41.164Z,62.90
2023-03-22T07:33:11.809Z,62.40
2023-03-22T07:35:41.606Z,60.83
2023-03-22T07:38:09.870Z,65.43
2023-03-22T07:40:38.540Z,62.13
2023-03-22T07:43:07.046Z,61.50
2023-03-22T07:45:35.353Z,61.67
2023-03-22T07:48:03.945Z,63.70
2023-03-22T07:50:32.441Z,59.37
2023-03-22T07:53:03.992Z,62.43
2023-03-22T07:55:32.311Z,55.03
2023-03-22T07:58:01.377Z,55.63
2023-03-22T08:00:30.070Z,50.93
2023-03-22T08:02:58.372Z,51.83
2023-03-22T08:05:27.627Z,53.30
2023-03-22T08:07:56.999Z,45.73
2023-03-22T08:10:27.023Z,51.07
2023-03-22T08:12:55.636Z,47.57
2023-03-22T08:15:24.135Z,49.50
2023-03-22T08:17:52.629Z,48.70
2023-03-22T08:20:23.241Z,52.00
2023-03-22T08:22:52.235Z,50.23
2023-03-22T08:25:20.728Z,48.83
2023-03-22T08:27:50.574Z,46.27
2023-03-22T08:30:19.507Z,46.27
2023-03-22T08:32:47.993Z,51.67
2023-03-22T08:35:16.133Z,62.77
2023-03-22T08:37:44.381Z,55.27
2023-03-22T08:40:13.598Z,63.13
2023-03-22T08:42:41.787Z,59.90
2023-03-22T08:45:12.213Z,61.93
2023-03-22T08:47:40.284Z,64.83
2023-03-22T08:50:10.060Z,61.63
2023-03-22T08:52:38.883Z,62.63
2023-03-22T08:55:08.760Z,60.57
2023-03-22T08:57:38.861Z,61.43
2023-03-22T09:00:10.519Z,61.20
2023-03-22T09:02:40.447Z,64.00
2023-03-22T09:05:08.973Z,60.53
2023-03-22T09:07:37.976Z,51.43
2023-03-22T09:10:07.122Z,58.77
2023-03-22T09:12:36.042Z,58.00
2023-03-22T09:15:04.991Z,60.87
2023-03-22T09:17:33.320Z,56.37
2023-03-22T09:20:12.504Z,59.10
2023-03-22T09:22:42.019Z,58.47
2023-03-22T09:25:12.836Z,55.33
2023-03-22T09:27:41.516Z,54.70
2023-03-22T09:30:10.456Z,53.10
2023-03-22T09:32:41.674Z,46.97
2023-03-22T09:35:11.495Z,48.03
2023-03-22T09:37:39.800Z,46.57
2023-03-22T09:40:09.657Z,45.87
2023-03-22T09:42:41.364Z,52.97
2023-03-22T09:45:16.085Z,43.20
2023-03-22T09:47:47.095Z,42.60
2023-03-22T09:50:21.617Z,44.00
2023-03-22T09:52:50.940Z,45.97
2023-03-22T09:55:22.817Z,43.30
2023-03-22T09:58:00.191Z,42.73
2023-03-22T10:00:38.930Z,39.20
2023-03-22T10:03:18.403Z,36.27
2023-03-22T10:05:52.656Z,36.00
2023-03-22T10:08:38.427Z,40.53
2023-03-22T10:11:19.956Z,39.37
2023-03-22T10:13:58.828Z,39.53
2023-03-22T10:16:33.388Z,39.03
2023-03-22T10:19:09.500Z,34.00
2023-03-22T10:21:39.525Z,43.80
2023-03-22T10:24:14.226Z,37.20
2023-03-22T10:26:46.174Z,39.90
2023-03-22T10:29:23.236Z,36.67
2023-03-22T10:31:51.655Z,36.97
2023-03-22T10:34:23.329Z,38.67
2023-03-22T10:36:54.119Z,31.27
2023-03-22T10:39:30.894Z,31.38
2023-03-22T10:42:03.119Z,30.17
2023-03-22T10:44:39.228Z,30.70
2023-03-22T10:47:11.286Z,41.45
2023-03-22T10:49:45.127Z,30.30
2023-03-22T10:52:24.042Z,33.10
2023-03-22T10:54:52.295Z,35.28
2023-03-22T10:57:20.510Z,35.63
2023-03-22T10:59:51.399Z,34.35
2023-03-22T11:02:21.756Z,30.75
2023-03-22T11:04:51.075Z,28.63
2023-03-22T11:07:32.982Z,28.48
2023-03-22T11:10:14.574Z,25.67
2023-03-22T11:12:48.040Z,20.80
2023-03-22T11:15:26.015Z,23.65
2023-03-22T11:17:56.502Z,23.42
2023-03-22T11:20:24.946Z,21.90
2023-03-22T11:22:56.380Z,24.05
2023-03-22T11:25:30.797Z,22.23
2023-03-22T11:28:09.632Z,28.55
2023-03-22T11:30:39.490Z,23.63
2023-03-22T11:33:18.897Z,25.85
2023-03-22T11:35:48.948Z,19.23
2023-03-22T11:38:32.361Z,18.52
2023-03-22T11:41:03.496Z,25.42
2023-03-22T11:43:38.708Z,25.35
2023-03-22T11:46:09.802Z,19.05
2023-03-22T11:48:39.567Z,23.65
2023-03-22T11:51:12.512Z,22.20
2023-03-22T11:53:45.254Z,19.13
2023-03-22T11:56:19.092Z,21.77
2023-03-22T11:58:59.973Z,18.67
2023-03-22T12:01:37.895Z,18.92
2023-03-22T12:04:10.033Z,19.20
2023-03-22T12:06:41.237Z,25.30
2023-03-22T12:09:21.097Z,17.88
2023-03-22T12:11:51.466Z,16.30
2023-03-22T12:14:25.251Z,17.13
2023-03-22T12:16:59.585Z,12.00
2023-03-22T12:19:55.124Z,17.05
2023-03-22T12:22:29.400Z,16.02
2023-03-22T12:25:00.041Z,14.63
2023-03-22T12:27:34.750Z,12.88
2023-03-22T12:30:08.490Z,19.50
2023-03-22T12:32:42.231Z,15.90
2023-03-22T12:35:18.247Z,15.98
2023-03-22T12:37:49.655Z,14.57
2023-03-22T12:40:26.178Z,12.50
2023-03-22T12:43:03.850Z,15.60
2023-03-22T12:45:37.308Z,21.13
2023-03-22T12:48:11.669Z,15.50
2023-03-22T12:50:45.247Z,15.00
2023-03-22T12:53:16.520Z,12.85
2023-03-22T12:55:48.018Z,14.15
2023-03-22T12:58:21.123Z,16.90
2023-03-22T13:00:53.995Z,13.65
2023-03-22T13:03:29.076Z,8.45
2023-03-22T13:06:09.236Z,6.03
2023-03-22T13:09:04.382Z,10.93
2023-03-22T13:11:34.155Z,10.32
2023-03-22T13:14:02.509Z,10.15
2023-03-22T13:16:52.353Z,9.70
2023-03-22T13:19:34.697Z,11.40
2023-03-22T13:22:21.161Z,10.30
2023-03-22T13:25:29.191Z,15.95
2023-03-22T13:28:00.481Z,10.82
2023-03-22T13:30:33.416Z,12.90
2023-03-22T13:33:04.553Z,14.30
2023-03-22T13:35:45.047Z,9.90
2023-03-22T13:38:22.798Z,8.85
2023-03-22T13:40:57.361Z,10.45
2023-03-22T13:43:31.273Z,10.20
2023-03-22T13:46:26.782Z,11.02
2023-03-22T13:49:14.007Z,23.08
2023-03-22T13:51:43.809Z,14.27
2023-03-22T13:54:19.873Z,9.15
2023-03-22T13:56:57.252Z,9.50
2023-03-22T13:59:31.472Z,12.40
2023-03-22T14:02:05.418Z,12.63
2023-03-22T14:04:42.726Z,10.63
2023-03-22T14:07:22.460Z,13.15
2023-03-22T14:09:53.367Z,13.52
2023-03-22T14:12:25.704Z,12.55
2023-03-22T14:14:58.564Z,11.65
2023-03-22T14:17:36.458Z,10.27
2023-03-22T14:20:10.754Z,11.65
